createdAt,value
2019-05-30T00:01:12.152Z,7.20
2019-05-30T00:03:39.442Z,7.13
2019-05-30T00:06:06.776Z,7.57
2019-05-30T00:08:34.268Z,6.60
2019-05-30T00:11:02.758Z,6.70
2019-05-30T00:13:30.409Z,6.50
2019-05-30T00:15:58.769Z,5.93
2019-05-30T00:18:26.253Z,5.77
2019-05-30T00:20:54.601Z,6.37
2019-05-30T00:23:22.190Z,6.30
2019-05-30T00:25:49.443Z,6.43
2019-05-30T00:28:16.829Z,6.80
2019-05-30T00:30:44.084Z,6.80
2019-05-30T00:33:11.917Z,6.40
2019-05-30T00:35:39.261Z,6.40
2019-05-30T00:38:06.516Z,6.53
2019-05-30T00:40:34.076Z,6.00
2019-05-30T00:43:02.120Z,6.20
2019-05-30T00:45:29.520Z,6.43
2019-05-30T00:47:57.971Z,5.87
2019-05-30T00:50:25.848Z,6.17
2019-05-30T00:52:53.107Z,5.80
2019-05-30T00:55:20.961Z,5.40
2019-05-30T00:57:48.197Z,6.37
2019-05-30T01:00:16.772Z,6.00
2019-05-30T01:02:44.402Z,5.97
2019-05-30T01:05:11.735Z,6.80
2019-05-30T01:07:39.315Z,6.07
2019-05-30T01:10:07.554Z,5.27
2019-05-30T01:12:35.041Z,4.83
2019-05-30T01:15:03.344Z,4.87
2019-05-30T01:17:30.767Z,4.63
2019-05-30T01:19:59.063Z,5.67
2019-05-30T01:22:26.469Z,5.83
2019-05-30T01:24:54.045Z,5.70
2019-05-30T01:27:21.309Z,5.63
2019-05-30T01:29:48.980Z,5.87
2019-05-30T01:32:28.841Z,5.90
2019-05-30T01:34:57.615Z,6.10
2019-05-30T01:37:25.093Z,5.63
2019-05-30T01:39:52.345Z,6.07
2019-05-30T01:42:19.604Z,6.47
2019-05-30T01:44:47.300Z,6.60
2019-05-30T01:47:14.705Z,6.07
2019-05-30T01:49:42.009Z,5.77
2019-05-30T01:52:09.258Z,6.37
2019-05-30T01:54:36.614Z,5.77
2019-05-30T01:57:04.682Z,5.83
2019-05-30T01:59:32.025Z,6.13
2019-05-30T02:01:59.256Z,5.67
2019-05-30T02:04:26.846Z,5.83
2019-05-30T02:06:54.096Z,6.20
2019-05-30T02:09:21.349Z,5.97
2019-05-30T02:11:48.934Z,5.30
2019-05-30T02:14:16.195Z,5.70
2019-05-30T02:16:43.740Z,5.40
2019-05-30T02:19:11.117Z,5.50
2019-05-30T02:21:38.349Z,4.77
2019-05-30T02:24:05.951Z,5.00
2019-05-30T02:26:33.342Z,4.53
2019-05-30T02:29:00.587Z,4.67
2019-05-30T02:31:38.895Z,5.23
2019-05-30T02:33:57.068Z,4.90
2019-05-30T02:36:24.629Z,4.73
2019-05-30T02:38:51.856Z,4.60
2019-05-30T02:41:19.241Z,5.40
2019-05-30T02:43:46.592Z,5.07
2019-05-30T02:46:13.820Z,4.77
2019-05-30T02:48:57.375Z,5.00
2019-05-30T02:51:12.270Z,5.00
2019-05-30T02:53:39.439Z,4.70
2019-05-30T02:56:07.898Z,4.67
2019-05-30T02:58:35.748Z,4.50
2019-05-30T03:01:04.033Z,4.77
2019-05-30T03:03:32.318Z,5.07
2019-05-30T03:05:59.634Z,5.47
2019-05-30T03:08:27.358Z,5.67
2019-05-30T03:10:54.829Z,5.67
2019-05-30T03:13:23.058Z,5.60
2019-05-30T03:15:51.226Z,5.47
2019-05-30T03:18:18.799Z,5.40
2019-05-30T03:20:46.173Z,5.67
2019-05-30T03:23:14.735Z,6.00
2019-05-30T03:25:42.481Z,5.50
2019-05-30T03:28:11.931Z,5.80
2019-05-30T03:30:39.221Z,5.70
2019-05-30T03:33:18.934Z,5.50
2019-05-30T03:35:41.777Z,4.90
2019-05-30T03:38:05.750Z,4.90
2019-05-30T03:40:34.007Z,5.57
2019-05-30T03:43:01.259Z,5.83
2019-05-30T03:45:29.100Z,5.53
2019-05-30T03:48:01.345Z,5.60
2019-05-30T03:50:29.706Z,5.40
2019-05-30T03:52:57.264Z,5.67
2019-05-30T03:55:26.638Z,5.60
2019-05-30T03:58:02.887Z,5.70
2019-05-30T04:00:38.165Z,5.57
2019-05-30T04:03:22.297Z,5.27
2019-05-30T04:05:54.948Z,5.20
2019-05-30T04:08:23.473Z,6.03
2019-05-30T04:10:54.363Z,5.53
2019-05-30T04:13:37.287Z,5.83
2019-05-30T04:16:04.583Z,5.67
2019-05-30T04:18:32.269Z,6.00
2019-05-30T04:20:59.703Z,4.80
2019-05-30T04:23:27.360Z,6.10
2019-05-30T04:25:54.981Z,6.30
2019-05-30T04:28:22.218Z,5.30
2019-05-30T04:30:49.770Z,5.93
2019-05-30T04:33:31.605Z,5.57
2019-05-30T04:35:46.152Z,5.80
2019-05-30T04:38:14.654Z,5.73
2019-05-30T04:40:42.472Z,5.53
2019-05-30T04:43:10.974Z,5.53
2019-05-30T04:45:38.443Z,4.97
2019-05-30T04:48:06.272Z,5.17
2019-05-30T04:50:35.973Z,4.60
2019-05-30T04:53:03.795Z,5.07
2019-05-30T04:55:31.153Z,5.10
2019-05-30T04:57:58.518Z,5.07
2019-05-30T05:00:26.128Z,4.07
2019-05-30T05:02:54.070Z,4.90
2019-05-30T05:05:26.261Z,4.87
2019-05-30T05:07:51.125Z,4.97
2019-05-30T05:10:20.214Z,5.03
2019-05-30T05:12:47.676Z,5.60
2019-05-30T05:15:16.442Z,5.10
2019-05-30T05:17:44.145Z,4.97
2019-05-30T05:20:13.044Z,5.03
2019-05-30T05:22:40.558Z,4.93
2019-05-30T05:25:08.179Z,4.90
2019-05-30T05:27:35.823Z,4.53
2019-05-30T05:30:03.630Z,4.53
2019-05-30T05:32:31.068Z,4.83
2019-05-30T05:34:58.663Z,4.70
2019-05-30T05:37:25.897Z,4.90
2019-05-30T05:39:53.231Z,4.77
2019-05-30T05:42:28.356Z,4.67
2019-05-30T05:44:53.028Z,4.90
2019-05-30T05:47:20.527Z,5.00
2019-05-30T05:49:48.450Z,4.87
2019-05-30T05:52:16.935Z,4.70
2019-05-30T05:54:45.072Z,4.70
2019-05-30T05:57:12.308Z,4.87
2019-05-30T05:59:39.913Z,5.00
2019-05-30T06:02:07.573Z,5.03
2019-05-30T06:04:34.844Z,5.17
2019-05-30T06:07:02.128Z,5.20
2019-05-30T06:09:29.734Z,5.13
2019-05-30T06:11:56.963Z,5.37
2019-05-30T06:14:24.336Z,5.10
2019-05-30T06:16:51.481Z,4.93
2019-05-30T06:19:21.325Z,4.50
2019-05-30T06:21:53.898Z,5.10
2019-05-30T06:24:19.616Z,4.10
2019-05-30T06:26:47.580Z,4.67
2019-05-30T06:29:15.230Z,5.17
2019-05-30T06:31:43.311Z,5.20
2019-05-30T06:34:10.656Z,4.83
2019-05-30T06:36:37.950Z,4.77
2019-05-30T06:39:07.096Z,4.93
2019-05-30T06:41:34.320Z,4.70
2019-05-30T06:44:05.597Z,4.70
2019-05-30T06:46:31.509Z,4.40
2019-05-30T06:48:58.858Z,4.73
2019-05-30T06:51:26.953Z,4.33
2019-05-30T06:53:54.465Z,4.50
2019-05-30T06:56:21.757Z,4.13
2019-05-30T06:58:49.291Z,4.03
2019-05-30T07:01:16.644Z,4.10
2019-05-30T07:03:44.347Z,4.20
2019-05-30T07:06:12.296Z,4.43
2019-05-30T07:08:39.855Z,4.30
2019-05-30T07:11:07.126Z,4.10
2019-05-30T07:13:34.739Z,4.37
2019-05-30T07:16:02.381Z,4.47
2019-05-30T07:18:34.640Z,4.10
2019-05-30T07:20:58.911Z,4.13
2019-05-30T07:23:26.189Z,4.87
2019-05-30T07:25:53.760Z,5.13
2019-05-30T07:28:21.785Z,5.33
2019-05-30T07:30:49.064Z,5.20
2019-05-30T07:33:16.697Z,5.63
2019-05-30T07:35:44.075Z,5.23
2019-05-30T07:38:11.444Z,4.90
2019-05-30T07:40:39.020Z,5.43
2019-05-30T07:43:06.568Z,5.60
2019-05-30T07:45:35.177Z,4.93
2019-05-30T07:48:02.716Z,5.20
2019-05-30T07:50:30.458Z,4.90
2019-05-30T07:52:58.146Z,5.20
2019-05-30T07:55:25.334Z,4.97
2019-05-30T07:57:53.008Z,4.83
2019-05-30T08:00:20.834Z,5.07
2019-05-30T08:02:48.192Z,4.63
2019-05-30T08:05:24.245Z,4.93
2019-05-30T08:07:45.085Z,4.60
2019-05-30T08:10:12.900Z,4.13
2019-05-30T08:12:40.130Z,3.90
2019-05-30T08:15:08.123Z,3.87
2019-05-30T08:17:36.104Z,3.40
2019-05-30T08:20:04.450Z,3.43
2019-05-30T08:22:32.020Z,3.13
2019-05-30T08:24:59.345Z,2.77
2019-05-30T08:27:26.564Z,3.20
2019-05-30T08:29:53.825Z,2.93
2019-05-30T08:32:21.126Z,3.07
2019-05-30T08:34:48.420Z,3.40
2019-05-30T08:37:15.947Z,3.17
2019-05-30T08:39:43.271Z,2.67
2019-05-30T08:42:10.533Z,2.90
2019-05-30T08:44:38.102Z,2.47
2019-05-30T08:47:05.396Z,2.40
2019-05-30T08:49:33.960Z,2.60
2019-05-30T08:52:01.453Z,2.17
2019-05-30T08:54:30.191Z,2.10
2019-05-30T08:56:57.708Z,1.80
2019-05-30T08:59:24.965Z,2.13
2019-05-30T09:01:53.266Z,2.20
2019-05-30T09:04:20.756Z,1.77
2019-05-30T09:06:48.123Z,2.10
2019-05-30T09:09:15.745Z,2.30
2019-05-30T09:11:44.437Z,1.70
2019-05-30T09:14:11.856Z,1.50
2019-05-30T09:16:39.009Z,1.77
2019-05-30T09:19:06.270Z,1.47
2019-05-30T09:21:33.858Z,1.60
2019-05-30T09:24:01.653Z,1.40
2019-05-30T09:26:29.371Z,1.40
2019-05-30T09:28:56.980Z,1.37
2019-05-30T09:31:24.315Z,1.27
2019-05-30T09:33:51.630Z,1.10
2019-05-30T09:36:19.239Z,1.30
2019-05-30T09:38:47.481Z,1.40
2019-05-30T09:41:14.856Z,1.53
2019-05-30T09:43:42.919Z,1.50
2019-05-30T09:46:10.656Z,1.40
2019-05-30T09:48:37.932Z,1.40
2019-05-30T09:51:05.232Z,1.20
2019-05-30T09:53:32.873Z,1.20
2019-05-30T09:56:00.188Z,1.10
2019-05-30T09:58:27.440Z,1.07
2019-05-30T10:00:54.682Z,1.20
2019-05-30T10:03:22.042Z,1.30
2019-05-30T10:05:50.492Z,1.00
2019-05-30T10:08:17.916Z,1.03
2019-05-30T10:10:45.735Z,1.10
2019-05-30T10:13:14.584Z,1.07
2019-05-30T10:15:41.873Z,1.10
2019-05-30T10:18:09.133Z,1.00
2019-05-30T10:20:36.397Z,0.93
2019-05-30T10:23:03.835Z,1.00
2019-05-30T10:25:31.218Z,0.80
2019-05-30T10:27:58.483Z,0.97
2019-05-30T10:30:26.422Z,1.00
2019-05-30T10:32:53.900Z,1.13
2019-05-30T10:35:23.372Z,1.00
2019-05-30T10:37:50.997Z,1.10
2019-05-30T10:40:19.221Z,1.00
2019-05-30T10:42:47.806Z,1.00
2019-05-30T10:45:16.364Z,0.80
2019-05-30T10:47:43.637Z,0.90
2019-05-30T10:50:12.524Z,1.10
2019-05-30T10:52:39.818Z,1.30
2019-05-30T10:55:07.748Z,1.00
2019-05-30T10:57:35.326Z,1.00
2019-05-30T11:00:03.732Z,0.93
2019-05-30T11:02:30.994Z,0.87
2019-05-30T11:04:58.245Z,0.80
2019-05-30T11:07:53.242Z,0.73
2019-05-30T11:10:11.924Z,0.80
2019-05-30T11:12:39.937Z,0.67
2019-05-30T11:15:07.673Z,0.83
2019-05-30T11:17:35.237Z,0.80
2019-05-30T11:20:03.205Z,0.80
2019-05-30T11:22:30.858Z,0.77
2019-05-30T11:24:59.367Z,0.80
2019-05-30T11:27:26.841Z,0.90
2019-05-30T11:29:54.802Z,0.90
2019-05-30T11:32:22.459Z,0.73
2019-05-30T11:34:51.078Z,0.80
2019-05-30T11:37:19.338Z,0.80
2019-05-30T11:39:46.812Z,0.87
2019-05-30T11:42:13.980Z,0.70
2019-05-30T11:44:41.244Z,0.70
2019-05-30T11:47:08.818Z,0.90
2019-05-30T11:49:37.668Z,0.80
2019-05-30T11:52:05.001Z,0.90
2019-05-30T11:54:33.036Z,1.00
2019-05-30T11:57:00.765Z,0.80
2019-05-30T11:59:28.355Z,0.90
2019-05-30T12:01:56.413Z,1.00
2019-05-30T12:04:25.684Z,1.10
2019-05-30T12:06:53.167Z,0.90
2019-05-30T12:09:20.481Z,0.83
2019-05-30T12:11:48.151Z,0.90
2019-05-30T12:14:15.807Z,1.13
2019-05-30T12:16:44.869Z,0.90
2019-05-30T12:19:12.157Z,0.77
2019-05-30T12:21:39.794Z,0.70
2019-05-30T12:24:06.936Z,0.80
2019-05-30T12:26:34.272Z,0.80
2019-05-30T12:29:02.316Z,0.87
2019-05-30T12:31:29.700Z,0.80
2019-05-30T12:33:58.337Z,0.90
2019-05-30T12:36:25.752Z,0.93
2019-05-30T12:38:54.213Z,0.90
2019-05-30T12:41:21.636Z,1.00
2019-05-30T12:43:48.917Z,1.10
2019-05-30T12:46:16.184Z,1.00
2019-05-30T12:48:43.490Z,0.90
2019-05-30T12:51:10.852Z,0.90
2019-05-30T12:53:38.331Z,0.90
2019-05-30T12:56:06.795Z,0.90
2019-05-30T12:58:34.240Z,0.90
2019-05-30T13:01:01.483Z,1.00
2019-05-30T13:03:28.768Z,1.20
2019-05-30T13:05:57.041Z,1.30
2019-05-30T13:08:24.704Z,1.53
2019-05-30T13:10:51.860Z,1.50
2019-05-30T13:13:19.568Z,1.53
2019-05-30T13:15:46.840Z,1.50
2019-05-30T13:18:14.252Z,0.83
2019-05-30T13:20:42.010Z,0.90
2019-05-30T13:23:09.390Z,0.90
2019-05-30T13:25:36.649Z,0.90
2019-05-30T13:28:07.166Z,1.00
2019-05-30T13:30:33.118Z,0.87
2019-05-30T13:33:00.866Z,0.90
2019-05-30T13:35:28.305Z,0.83
2019-05-30T13:37:57.008Z,0.90
2019-05-30T13:40:25.767Z,0.80
2019-05-30T13:42:53.824Z,0.80
2019-05-30T13:45:21.078Z,1.03
2019-05-30T13:47:48.642Z,0.80
2019-05-30T13:50:15.966Z,1.00
2019-05-30T13:52:43.288Z,1.00
2019-05-30T13:55:10.854Z,1.00
2019-05-30T13:57:38.167Z,1.10
2019-05-30T14:00:06.085Z,1.20
2019-05-30T14:02:33.498Z,0.80
2019-05-30T14:05:02.126Z,1.00
2019-05-30T14:07:29.588Z,1.00
2019-05-30T14:09:56.853Z,1.00
2019-05-30T14:12:24.404Z,1.07
2019-05-30T14:14:51.972Z,0.90
2019-05-30T14:17:19.944Z,1.00
2019-05-30T14:19:47.421Z,1.13
2019-05-30T14:22:14.665Z,1.10
2019-05-30T14:24:41.909Z,1.20
2019-05-30T14:27:09.599Z,1.30
2019-05-30T14:29:37.486Z,1.10
2019-05-30T14:32:05.760Z,1.10
2019-05-30T14:34:33.182Z,1.20
2019-05-30T14:37:00.524Z,1.07
2019-05-30T14:39:28.171Z,1.20
2019-05-30T14:41:55.740Z,1.10
2019-05-30T14:44:23.750Z,1.10
2019-05-30T14:46:51.160Z,1.20
2019-05-30T14:49:18.383Z,1.20
2019-05-30T14:51:45.634Z,1.43
2019-05-30T14:54:13.200Z,1.23
2019-05-30T14:56:41.617Z,1.30
2019-05-30T14:59:09.468Z,1.30
2019-05-30T15:01:36.633Z,1.37
2019-05-30T15:04:05.047Z,1.43
2019-05-30T15:06:32.878Z,1.70
2019-05-30T15:09:14.358Z,1.53
2019-05-30T15:11:29.352Z,1.40
2019-05-30T15:13:56.704Z,1.30
2019-05-30T15:16:23.942Z,1.50
2019-05-30T15:18:51.223Z,1.60
2019-05-30T15:21:18.556Z,1.50
2019-05-30T15:23:46.203Z,1.63
2019-05-30T15:26:14.203Z,1.50
2019-05-30T15:28:41.617Z,1.50
2019-05-30T15:31:08.912Z,1.80
2019-05-30T15:33:36.138Z,1.90
2019-05-30T15:36:03.389Z,1.73
2019-05-30T15:38:30.650Z,1.70
2019-05-30T15:40:58.607Z,1.50
2019-05-30T15:43:25.977Z,1.77
2019-05-30T15:45:53.637Z,1.70
2019-05-30T15:48:21.486Z,1.53
2019-05-30T15:50:49.156Z,1.80
2019-05-30T15:53:17.295Z,1.90
2019-05-30T15:55:44.644Z,1.83
2019-05-30T15:58:11.899Z,2.10
2019-05-30T16:00:39.237Z,2.10
2019-05-30T16:03:06.552Z,2.10
2019-05-30T16:05:33.784Z,2.30
2019-05-30T16:08:01.044Z,2.20
2019-05-30T16:10:28.263Z,1.70
2019-05-30T16:12:55.840Z,2.00
2019-05-30T16:15:23.177Z,2.27
2019-05-30T16:17:50.664Z,2.30
2019-05-30T16:20:18.626Z,2.20
2019-05-30T16:22:46.188Z,2.53
2019-05-30T16:25:15.513Z,2.00
2019-05-30T16:27:43.024Z,2.23
2019-05-30T16:30:11.499Z,2.10
2019-05-30T16:32:39.192Z,2.20
2019-05-30T16:35:08.633Z,2.00
2019-05-30T16:37:36.136Z,1.80
2019-05-30T16:40:06.355Z,1.70
2019-05-30T16:42:33.224Z,1.53
2019-05-30T16:45:00.477Z,1.63
2019-05-30T16:47:27.729Z,1.47
2019-05-30T16:49:54.971Z,1.27
2019-05-30T16:52:23.153Z,1.30
2019-05-30T16:54:50.593Z,1.30
2019-05-30T16:57:18.530Z,1.50
2019-05-30T16:59:45.909Z,1.53
2019-05-30T17:02:13.176Z,1.60
2019-05-30T17:04:40.395Z,1.77
2019-05-30T17:07:07.693Z,1.80
2019-05-30T17:09:35.242Z,1.60
2019-05-30T17:12:02.535Z,1.83
2019-05-30T17:14:29.770Z,2.33
2019-05-30T17:16:57.145Z,2.17
2019-05-30T17:19:24.574Z,2.10
2019-05-30T17:21:51.932Z,1.80
2019-05-30T17:24:19.182Z,2.33
2019-05-30T17:26:46.429Z,2.00
2019-05-30T17:29:13.953Z,1.67
2019-05-30T17:31:41.932Z,1.47
2019-05-30T17:34:09.204Z,1.80
2019-05-30T17:36:37.320Z,1.60
2019-05-30T17:39:06.921Z,2.23
2019-05-30T17:41:34.192Z,6.67
2019-05-30T17:44:01.768Z,4.50
2019-05-30T17:46:30.064Z,5.10
2019-05-30T17:48:57.671Z,3.30
2019-05-30T17:51:25.864Z,2.10
2019-05-30T17:53:53.340Z,1.60
2019-05-30T17:56:21.945Z,1.90
2019-05-30T17:58:49.433Z,1.90
2019-05-30T18:01:16.718Z,1.80
2019-05-30T18:03:44.035Z,1.40
2019-05-30T18:06:11.652Z,1.80
2019-05-30T18:08:38.904Z,1.70
2019-05-30T18:11:06.448Z,1.67
2019-05-30T18:13:33.701Z,1.70
2019-05-30T18:16:00.971Z,1.83
2019-05-30T18:18:29.338Z,1.93
2019-05-30T18:20:56.660Z,1.73
2019-05-30T18:23:23.917Z,1.70
2019-05-30T18:25:51.136Z,2.03
2019-05-30T18:28:18.333Z,1.70
2019-05-30T18:30:45.669Z,2.00
2019-05-30T18:33:12.842Z,1.83
2019-05-30T18:35:40.100Z,2.00
2019-05-30T18:38:07.451Z,2.27
2019-05-30T18:40:35.924Z,1.97
2019-05-30T18:43:03.627Z,2.70
2019-05-30T18:45:36.478Z,2.30
2019-05-30T18:48:03.816Z,2.27
2019-05-30T18:50:31.630Z,2.37
2019-05-30T18:52:59.040Z,2.33
2019-05-30T18:55:26.584Z,2.60
2019-05-30T18:57:53.871Z,2.37
2019-05-30T19:00:21.085Z,2.27
2019-05-30T19:02:48.243Z,2.80
2019-05-30T19:05:15.680Z,2.60
2019-05-30T19:07:42.962Z,2.50
2019-05-30T19:10:10.622Z,3.00
2019-05-30T19:12:37.928Z,3.10
2019-05-30T19:15:05.808Z,2.93
2019-05-30T19:17:33.731Z,2.90
2019-05-30T19:20:01.069Z,2.90
2019-05-30T19:22:28.412Z,3.20
2019-05-30T19:24:56.441Z,3.03
2019-05-30T19:27:23.840Z,2.87
2019-05-30T19:29:51.105Z,3.00
2019-05-30T19:32:18.386Z,3.23
2019-05-30T19:34:45.611Z,3.27
2019-05-30T19:37:12.992Z,3.13
2019-05-30T19:39:40.316Z,3.07
2019-05-30T19:42:08.083Z,3.07
2019-05-30T19:44:38.418Z,3.40
2019-05-30T19:47:04.640Z,3.43
2019-05-30T19:49:32.545Z,4.07
2019-05-30T19:51:59.772Z,4.57
2019-05-30T19:54:27.036Z,4.90
2019-05-30T19:56:54.260Z,4.57
2019-05-30T19:59:21.708Z,5.33
2019-05-30T20:01:49.117Z,4.50
2019-05-30T20:04:16.460Z,4.47
2019-05-30T20:06:43.738Z,4.30
2019-05-30T20:09:11.532Z,3.63
2019-05-30T20:11:39.384Z,3.73
2019-05-30T20:14:06.781Z,3.60
2019-05-30T20:16:34.141Z,3.40
2019-05-30T20:19:01.504Z,3.87
2019-05-30T20:21:29.637Z,3.80
2019-05-30T20:23:59.564Z,3.87
2019-05-30T20:26:26.116Z,4.10
2019-05-30T20:28:53.420Z,3.83
2019-05-30T20:31:20.712Z,3.73
2019-05-30T20:33:48.657Z,3.90
2019-05-30T20:36:15.972Z,3.93
2019-05-30T20:38:43.215Z,3.93
2019-05-30T20:41:10.536Z,3.70
2019-05-30T20:43:38.903Z,3.37
2019-05-30T20:46:06.331Z,4.07
2019-05-30T20:48:34.864Z,3.27
2019-05-30T20:51:02.704Z,3.13
2019-05-30T20:53:29.981Z,3.80
2019-05-30T20:55:57.316Z,3.93
2019-05-30T20:58:24.548Z,4.00
2019-05-30T21:00:51.820Z,3.57
2019-05-30T21:03:19.526Z,3.73
2019-05-30T21:05:47.561Z,3.57
2019-05-30T21:08:15.364Z,3.57
2019-05-30T21:10:43.636Z,3.37
2019-05-30T21:13:10.882Z,3.33
2019-05-30T21:15:40.145Z,3.83
2019-05-30T21:18:07.801Z,3.77
2019-05-30T21:20:35.824Z,3.90
2019-05-30T21:23:03.527Z,3.90
2019-05-30T21:25:35.647Z,4.27
2019-05-30T21:28:01.263Z,4.77
2019-05-30T21:30:28.665Z,4.77
2019-05-30T21:32:56.029Z,4.33
2019-05-30T21:35:23.440Z,3.93
2019-05-30T21:37:50.853Z,4.67
2019-05-30T21:40:18.209Z,4.70
2019-05-30T21:43:02.760Z,4.80
2019-05-30T21:45:15.028Z,4.10
2019-05-30T21:47:42.854Z,4.63
2019-05-30T21:50:10.798Z,4.40
2019-05-30T21:52:39.402Z,4.43
2019-05-30T21:55:07.035Z,3.83
2019-05-30T21:57:34.404Z,3.87
2019-05-30T22:00:01.694Z,3.83
2019-05-30T22:02:28.989Z,3.83
2019-05-30T22:04:56.237Z,4.23
2019-05-30T22:07:23.513Z,3.90
2019-05-30T22:09:51.541Z,4.00
2019-05-30T22:12:19.363Z,3.93
2019-05-30T22:14:47.724Z,3.80
2019-05-30T22:17:15.181Z,4.13
2019-05-30T22:19:43.730Z,4.50
2019-05-30T22:22:11.717Z,4.00
2019-05-30T22:24:39.204Z,4.60
2019-05-30T22:27:06.714Z,4.67
2019-05-30T22:29:34.452Z,4.40
2019-05-30T22:32:01.784Z,4.33
2019-05-30T22:34:29.517Z,4.47
2019-05-30T22:36:57.193Z,4.17
2019-05-30T22:39:24.928Z,4.20
2019-05-30T22:41:52.222Z,4.30
2019-05-30T22:44:19.540Z,4.07
2019-05-30T22:46:47.874Z,4.20
2019-05-30T22:49:15.602Z,4.03
2019-05-30T22:51:42.884Z,4.30
2019-05-30T22:54:10.186Z,3.93
2019-05-30T22:56:37.852Z,4.30
2019-05-30T22:59:05.201Z,4.00
2019-05-30T23:01:32.849Z,4.17
2019-05-30T23:04:00.638Z,4.10
2019-05-30T23:06:28.698Z,3.97
2019-05-30T23:08:56.972Z,4.03
2019-05-30T23:11:24.390Z,4.00
2019-05-30T23:13:52.034Z,4.30
2019-05-30T23:16:19.373Z,4.17
2019-05-30T23:18:46.653Z,4.00
2019-05-30T23:21:14.284Z,3.97
2019-05-30T23:23:41.568Z,4.30
2019-05-30T23:26:08.848Z,4.00
2019-05-30T23:28:36.128Z,3.97
2019-05-30T23:31:03.418Z,4.00
2019-05-30T23:33:30.584Z,4.30
2019-05-30T23:35:58.579Z,4.10
2019-05-30T23:38:26.388Z,4.47
2019-05-30T23:40:55.057Z,4.20
2019-05-30T23:43:22.587Z,4.60
2019-05-30T23:45:51.277Z,4.17
2019-05-30T23:48:18.816Z,4.67
2019-05-30T23:50:46.191Z,4.97
2019-05-30T23:53:13.853Z,4.60
2019-05-30T23:55:41.116Z,4.30
2019-05-30T23:58:08.474Z,4.33
